createdAt,value
2023-03-15T00:00:34.956Z,2.17
2023-03-15T00:01:34.958Z,2.17
2023-03-15T00:02:35.007Z,2.44
2023-03-15T00:03:34.976Z,2.44
2023-03-15T00:04:34.964Z,2.28
2023-03-15T00:05:34.961Z,2.28
2023-03-15T00:06:34.974Z,2.61
2023-03-15T00:07:34.953Z,2.28
2023-03-15T00:08:34.974Z,2.61
2023-03-15T00:09:34.966Z,2.17
2023-03-15T00:10:34.969Z,2
2023-03-15T00:11:34.952Z,2.17
2023-03-15T00:12:34.970Z,2.17
2023-03-15T00:13:34.957Z,2.28
2023-03-15T00:14:34.984Z,2.89
2023-03-15T00:15:34.992Z,3
2023-03-15T00:16:34.957Z,2.72
2023-03-15T00:17:34.978Z,3
2023-03-15T00:18:34.962Z,2.72
2023-03-15T00:19:34.952Z,2.72
2023-03-15T00:20:34.966Z,2.61
2023-03-15T00:21:34.965Z,2.61
2023-03-15T00:22:34.977Z,2.61
2023-03-15T00:23:34.965Z,2.28
2023-03-15T00:24:34.952Z,2.28
2023-03-15T00:25:34.954Z,2.28
2023-03-15T00:26:34.986Z,2.17
2023-03-15T00:27:34.963Z,2.28
2023-03-15T00:28:34.955Z,1.72
2023-03-15T00:29:34.965Z,2
2023-03-15T00:30:35.007Z,2.17
2023-03-15T00:31:35.002Z,2
2023-03-15T00:32:34.974Z,1.89
2023-03-15T00:33:35.197Z,1.72
2023-03-15T00:34:34.972Z,1.89
2023-03-15T00:35:34.980Z,1.72
2023-03-15T00:36:34.971Z,2.17
2023-03-15T00:37:34.972Z,2.61
2023-03-15T00:38:34.995Z,2.44
2023-03-15T00:39:34.972Z,2.72
2023-03-15T00:40:34.981Z,3
2023-03-15T00:41:34.998Z,3
2023-03-15T00:42:34.985Z,3
2023-03-15T00:43:34.972Z,2.89
2023-03-15T00:44:34.974Z,2.28
2023-03-15T00:45:34.992Z,2.89
2023-03-15T00:46:35.056Z,2.72
2023-03-15T00:47:34.975Z,2.44
2023-03-15T00:48:34.982Z,2.61
2023-03-15T00:49:34.983Z,2.72
2023-03-15T00:50:34.986Z,2.61
2023-03-15T00:51:34.989Z,2.17
2023-03-15T00:52:34.980Z,2.28
2023-03-15T00:53:34.991Z,2.44
2023-03-15T00:54:34.986Z,2.61
2023-03-15T00:55:34.991Z,2.61
2023-03-15T00:56:34.994Z,2.44
2023-03-15T00:57:34.990Z,2.28
2023-03-15T00:58:34.984Z,2.28
2023-03-15T00:59:34.981Z,2.17
2023-03-15T01:00:34.997Z,2.17
2023-03-15T01:01:35.038Z,2.17
2023-03-15T01:02:35.130Z,2.44
2023-03-15T01:03:36.785Z,2.17
2023-03-15T01:04:35.009Z,2.17
2023-03-15T01:05:34.997Z,1.89
2023-03-15T01:06:34.998Z,2
2023-03-15T01:07:34.991Z,1.89
2023-03-15T01:08:35.001Z,1.89
2023-03-15T01:09:34.986Z,1.72
2023-03-15T01:10:34.995Z,1.89
2023-03-15T01:11:35.008Z,1.72
2023-03-15T01:12:35.025Z,1.89
2023-03-15T01:13:35.006Z,1.89
2023-03-15T01:14:35.014Z,1.72
2023-03-15T01:15:34.998Z,2
2023-03-15T01:16:35.000Z,2.17
2023-03-15T01:17:35.008Z,2.17
2023-03-15T01:18:35.036Z,1.72
2023-03-15T01:19:35.001Z,2.17
2023-03-15T01:20:35.001Z,1.72
2023-03-15T01:21:35.005Z,1.72
2023-03-15T01:22:35.027Z,1.61
2023-03-15T01:23:35.017Z,1.72
2023-03-15T01:24:35.024Z,1.89
2023-03-15T01:25:35.024Z,1.72
2023-03-15T01:26:35.011Z,1.89
2023-03-15T01:27:35.008Z,1.61
2023-03-15T01:28:35.058Z,1.72
2023-03-15T01:29:35.015Z,1.89
2023-03-15T01:30:35.008Z,1.72
2023-03-15T01:31:35.061Z,1.5
2023-03-15T01:32:35.069Z,1.72
2023-03-15T01:33:35.018Z,1.61
2023-03-15T01:34:35.112Z,1.89
2023-03-15T01:35:35.049Z,1.72
2023-03-15T01:36:35.016Z,1.72
2023-03-15T01:37:35.024Z,1.89
2023-03-15T01:38:35.041Z,1.61
2023-03-15T01:39:35.013Z,1.72
2023-03-15T01:40:35.022Z,1.61
2023-03-15T01:41:35.028Z,1.61
2023-03-15T01:42:35.018Z,1.72
2023-03-15T01:43:35.027Z,1.61
2023-03-15T01:44:35.032Z,2.17
2023-03-15T01:45:35.039Z,1.72
2023-03-15T01:46:35.250Z,1.5
2023-03-15T01:47:35.030Z,1.33
2023-03-15T01:48:35.054Z,1.33
2023-03-15T01:49:35.033Z,1.33
2023-03-15T01:50:35.077Z,1.33
2023-03-15T01:51:35.026Z,1.33
2023-03-15T01:52:35.035Z,1.5
2023-03-15T01:53:35.033Z,1.5
2023-03-15T01:54:35.059Z,1.33
2023-03-15T01:55:35.036Z,1.72
2023-03-15T01:56:35.044Z,1.5
2023-03-15T01:57:35.031Z,1.33
2023-03-15T01:58:36.833Z,1.06
2023-03-15T01:59:35.038Z,1.33
2023-03-15T02:00:35.060Z,1.33
2023-03-15T02:01:35.032Z,1.33
2023-03-15T02:02:35.095Z,1.33
2023-03-15T02:03:35.042Z,1.06
2023-03-15T02:04:35.058Z,1.17
2023-03-15T02:05:35.034Z,1.33
2023-03-15T02:06:35.096Z,1.06
2023-03-15T02:07:35.046Z,1.06
2023-03-15T02:08:35.054Z,1.17
2023-03-15T02:09:35.042Z,1.33
2023-03-15T02:10:35.043Z,1.33
2023-03-15T02:11:35.047Z,1.06
2023-03-15T02:12:35.057Z,1.33
2023-03-15T02:13:35.037Z,0.89
2023-03-15T02:14:35.064Z,1.33
2023-03-15T02:15:35.051Z,1.33
2023-03-15T02:16:35.142Z,1.5
2023-03-15T02:17:35.047Z,1.5
2023-03-15T02:18:35.041Z,1.33
2023-03-15T02:19:35.039Z,1.33
2023-03-15T02:20:35.042Z,1.06
2023-03-15T02:21:35.045Z,1.17
2023-03-15T02:22:35.078Z,1.17
2023-03-15T02:23:35.050Z,1.17
2023-03-15T02:24:35.053Z,1.33
2023-03-15T02:25:35.050Z,1.33
2023-03-15T02:26:35.072Z,0.89
2023-03-15T02:27:35.109Z,1.33
2023-03-15T02:28:35.053Z,0.89
2023-03-15T02:29:35.057Z,0.72
2023-03-15T02:30:35.037Z,0.89
2023-03-15T02:31:35.091Z,1.17
2023-03-15T02:32:35.104Z,1.06
2023-03-15T02:33:35.045Z,1.33
2023-03-15T02:34:35.054Z,1.17
2023-03-15T02:35:35.058Z,0.89
2023-03-15T02:36:35.045Z,1.33
2023-03-15T02:37:35.054Z,1.17
2023-03-15T02:38:35.064Z,1.06
2023-03-15T02:39:35.047Z,0.89
2023-03-15T02:40:35.049Z,1.17
2023-03-15T02:41:35.053Z,1.06
2023-03-15T02:42:35.049Z,1.17
2023-03-15T02:43:35.044Z,0.61
2023-03-15T02:44:35.059Z,0.89
2023-03-15T02:45:35.071Z,0.89
2023-03-15T02:46:35.050Z,0.89
2023-03-15T02:47:35.058Z,0.72
2023-03-15T02:48:35.041Z,1.17
2023-03-15T02:49:35.062Z,0.89
2023-03-15T02:50:35.064Z,0.89
2023-03-15T02:51:35.064Z,0.44
2023-03-15T02:52:35.053Z,0.89
2023-03-15T02:53:35.050Z,1.06
2023-03-15T02:54:35.072Z,1.06
2023-03-15T02:55:35.055Z,0.89
2023-03-15T02:56:35.085Z,0.72
2023-03-15T02:57:35.069Z,1.17
2023-03-15T02:58:35.050Z,1.06
2023-03-15T02:59:35.056Z,1.17
2023-03-15T03:00:35.064Z,1.17
2023-03-15T03:01:35.095Z,1.06
2023-03-15T03:02:35.111Z,0.61
2023-03-15T03:03:35.066Z,0.89
2023-03-15T03:04:35.065Z,1.06
2023-03-15T03:05:35.063Z,0.89
2023-03-15T03:06:35.061Z,1.06
2023-03-15T03:07:35.056Z,1.06
2023-03-15T03:08:35.061Z,1.06
2023-03-15T03:09:35.057Z,1.06
2023-03-15T03:10:35.091Z,0.72
2023-03-15T03:11:35.068Z,0.28
2023-03-15T03:12:35.072Z,0.72
2023-03-15T03:13:35.060Z,0.72
2023-03-15T03:14:35.069Z,0.89
2023-03-15T03:15:35.063Z,0.89
2023-03-15T03:16:35.125Z,1.06
2023-03-15T03:17:35.067Z,0.89
2023-03-15T03:18:35.069Z,0.89
2023-03-15T03:19:35.065Z,0.89
2023-03-15T03:20:35.059Z,1.17
2023-03-15T03:21:35.066Z,0.72
2023-03-15T03:22:35.058Z,0.44
2023-03-15T03:23:35.080Z,0.89
2023-03-15T03:24:35.061Z,0.89
2023-03-15T03:25:35.057Z,0.89
2023-03-15T03:26:35.082Z,1.33
2023-03-15T03:27:35.060Z,0.89
2023-03-15T03:28:35.063Z,0.89
2023-03-15T03:29:35.061Z,1.06
2023-03-15T03:30:35.115Z,1.17
2023-03-15T03:31:35.056Z,1.33
2023-03-15T03:32:35.119Z,1.33
2023-03-15T03:33:35.075Z,1.17
2023-03-15T03:34:35.072Z,1.06
2023-03-15T03:35:35.126Z,1.06
2023-03-15T03:36:35.073Z,0.72
2023-03-15T03:37:35.070Z,0.89
2023-03-15T03:38:35.055Z,0.44
2023-03-15T03:39:35.048Z,0.72
2023-03-15T03:40:35.063Z,0.61
2023-03-15T03:41:35.085Z,0.61
2023-03-15T03:42:35.116Z,0.44
2023-03-15T03:43:35.055Z,0.61
2023-03-15T03:44:35.063Z,0.17
2023-03-15T03:45:35.063Z,0.17
2023-03-15T03:46:35.091Z,0.17
2023-03-15T03:47:35.064Z,0.17
2023-03-15T03:48:35.063Z,0
2023-03-15T03:49:35.071Z,0
2023-03-15T03:50:35.059Z,0.17
2023-03-15T03:51:35.051Z,0.17
2023-03-15T03:52:35.073Z,-0.17
2023-03-15T03:53:35.060Z,0.17
2023-03-15T03:54:35.067Z,0.28
2023-03-15T03:55:35.073Z,0.28
2023-03-15T03:56:35.059Z,0.28
2023-03-15T03:57:35.062Z,0.28
2023-03-15T03:58:35.095Z,0.44
2023-03-15T03:59:35.062Z,0.61
2023-03-15T04:00:35.067Z,0.72
2023-03-15T04:01:35.064Z,0.28
2023-03-15T04:02:35.126Z,0.72
2023-03-15T04:03:35.060Z,0.44
2023-03-15T04:04:35.100Z,0.44
2023-03-15T04:05:35.073Z,0.44
2023-03-15T04:06:35.075Z,0.61
2023-03-15T04:07:35.084Z,0.61
2023-03-15T04:08:35.067Z,0.72
2023-03-15T04:09:35.081Z,0.72
2023-03-15T04:10:35.081Z,0.61
2023-03-15T04:11:35.068Z,0.72
2023-03-15T04:12:35.162Z,1.33
2023-03-15T04:13:35.088Z,1.33
2023-03-15T04:14:35.112Z,1.72
2023-03-15T04:15:35.074Z,2.28
2023-03-15T04:16:35.086Z,2
2023-03-15T04:17:35.086Z,2
2023-03-15T04:18:35.098Z,1.89
2023-03-15T04:19:35.091Z,2.28
2023-03-15T04:20:35.092Z,2.17
2023-03-15T04:21:35.086Z,2
2023-03-15T04:22:35.085Z,1.89
2023-03-15T04:23:35.091Z,1.5
2023-03-15T04:24:35.096Z,1.72
2023-03-15T04:25:35.098Z,2
2023-03-15T04:26:35.091Z,1.89
2023-03-15T04:27:35.090Z,1.89
2023-03-15T04:28:35.110Z,1.61
2023-03-15T04:29:35.095Z,1.89
2023-03-15T04:30:35.228Z,1.61
2023-03-15T04:31:35.141Z,1.72
2023-03-15T04:32:35.119Z,1.72
2023-03-15T04:33:35.109Z,1.89
2023-03-15T04:34:35.102Z,1.61
2023-03-15T04:35:35.145Z,1.72
2023-03-15T04:36:35.110Z,2
2023-03-15T04:37:35.113Z,1.89
2023-03-15T04:38:35.111Z,1.72
2023-03-15T04:39:35.112Z,1.72
2023-03-15T04:40:35.147Z,1.61
2023-03-15T04:41:35.134Z,1.89
2023-03-15T04:42:35.121Z,1.89
2023-03-15T04:43:35.121Z,1.5
2023-03-15T04:44:35.127Z,1.72
2023-03-15T04:45:35.141Z,1.72
2023-03-15T04:46:35.275Z,1.61
2023-03-15T04:47:35.127Z,1.72
2023-03-15T04:48:35.140Z,1.61
2023-03-15T04:49:35.137Z,1.61
2023-03-15T04:50:35.137Z,1.72
2023-03-15T04:51:35.144Z,1.61
2023-03-15T04:52:35.141Z,1.72
2023-03-15T04:53:35.139Z,1.5
2023-03-15T04:54:35.134Z,1.33
2023-03-15T04:55:35.135Z,1.61
2023-03-15T04:56:35.133Z,1.61
2023-03-15T04:57:35.149Z,1.5
2023-03-15T04:58:35.130Z,1.33
2023-03-15T04:59:35.132Z,1.33
2023-03-15T05:00:35.177Z,1.33
2023-03-15T05:01:35.218Z,0.72
2023-03-15T05:02:35.161Z,0.89
2023-03-15T05:03:35.148Z,1.33
2023-03-15T05:04:35.152Z,1.5
2023-03-15T05:05:35.141Z,1.5
2023-03-15T05:06:35.160Z,1.17
2023-03-15T05:07:35.162Z,1.06
2023-03-15T05:08:35.158Z,0.89
2023-03-15T05:09:35.145Z,0.89
2023-03-15T05:10:35.177Z,1.17
2023-03-15T05:11:35.181Z,1.06
2023-03-15T05:12:35.154Z,1.33
2023-03-15T05:13:35.153Z,1.33
2023-03-15T05:14:35.153Z,1.17
2023-03-15T05:15:35.154Z,1.17
2023-03-15T05:16:35.203Z,1.61
2023-03-15T05:17:35.165Z,1.5
2023-03-15T05:18:35.241Z,1.61
2023-03-15T05:19:35.167Z,1.72
2023-03-15T05:20:35.168Z,1.72
2023-03-15T05:21:35.170Z,1.33
2023-03-15T05:22:35.179Z,1.33
2023-03-15T05:23:35.168Z,1.5
2023-03-15T05:24:35.171Z,1.72
2023-03-15T05:25:36.828Z,1.72
2023-03-15T05:26:35.205Z,1.61
2023-03-15T05:27:35.184Z,1.61
2023-03-15T05:28:35.171Z,1.5
2023-03-15T05:29:35.175Z,1.61
2023-03-15T05:30:35.177Z,1.5
2023-03-15T05:31:35.187Z,1.61
2023-03-15T05:32:35.278Z,1.5
2023-03-15T05:33:35.182Z,1.33
2023-03-15T05:34:35.208Z,1.5
2023-03-15T05:35:35.275Z,1.72
2023-03-15T05:36:35.178Z,1.06
2023-03-15T05:37:35.187Z,1.17
2023-03-15T05:38:35.186Z,1.33
2023-03-15T05:39:35.190Z,1.33
2023-03-15T05:40:35.199Z,1.33
2023-03-15T05:41:35.198Z,1.33
2023-03-15T05:42:35.219Z,1.33
2023-03-15T05:43:35.197Z,1.06
2023-03-15T05:44:35.185Z,1.06
2023-03-15T05:45:35.233Z,1.5
2023-03-15T05:46:35.186Z,1.33
2023-03-15T05:47:35.190Z,1.06
2023-03-15T05:48:35.207Z,1.06
2023-03-15T05:49:35.191Z,0.89
2023-03-15T05:50:35.285Z,1.17
2023-03-15T05:51:35.204Z,1.17
2023-03-15T05:52:35.203Z,1.33
2023-03-15T05:53:35.210Z,1.06
2023-03-15T05:54:35.208Z,0.89
2023-03-15T05:55:35.201Z,1.17
2023-03-15T05:56:35.215Z,1.17
2023-03-15T05:57:35.227Z,1.33
2023-03-15T05:58:35.211Z,1.17
2023-03-15T05:59:35.207Z,0.89
2023-03-15T06:00:35.217Z,0.89
2023-03-15T06:01:35.205Z,0.72
2023-03-15T06:02:35.199Z,0.89
2023-03-15T06:03:35.282Z,1.33
2023-03-15T06:04:35.225Z,1.33
2023-03-15T06:05:35.247Z,1.33
2023-03-15T06:06:35.243Z,1.5
2023-03-15T06:07:35.215Z,0.89
2023-03-15T06:08:35.218Z,1.06
2023-03-15T06:09:35.225Z,1.06
2023-03-15T06:10:35.224Z,1.06
2023-03-15T06:11:35.221Z,1.06
2023-03-15T06:12:35.220Z,0.89
2023-03-15T06:13:35.231Z,1.17
2023-03-15T06:14:35.216Z,1.5
2023-03-15T06:15:35.215Z,1.72
2023-03-15T06:16:35.274Z,1.72
2023-03-15T06:17:35.232Z,1.5
2023-03-15T06:18:35.227Z,1.33
2023-03-15T06:19:37.388Z,1.06
2023-03-15T06:20:35.224Z,1.17
2023-03-15T06:21:35.218Z,1.72
2023-03-15T06:22:35.247Z,2.28
2023-03-15T06:23:35.215Z,2
2023-03-15T06:24:35.225Z,2
2023-03-15T06:25:35.226Z,1.89
2023-03-15T06:26:35.236Z,1.17
2023-03-15T06:27:35.231Z,1.33
2023-03-15T06:28:35.231Z,1.06
2023-03-15T06:29:35.229Z,1.33
2023-03-15T06:30:35.316Z,1.33
2023-03-15T06:31:35.256Z,0.89
2023-03-15T06:32:35.285Z,0.61
2023-03-15T06:33:35.242Z,0.72
2023-03-15T06:34:35.249Z,0.61
2023-03-15T06:35:35.260Z,0.72
2023-03-15T06:36:35.238Z,0.89
2023-03-15T06:37:35.796Z,0.44
2023-03-15T06:38:35.262Z,0.72
2023-03-15T06:39:35.236Z,0.89
2023-03-15T06:40:35.239Z,0.61
2023-03-15T06:41:35.238Z,0.17
2023-03-15T06:42:35.246Z,0.61
2023-03-15T06:43:35.239Z,0.17
2023-03-15T06:44:35.241Z,0.44
2023-03-15T06:45:35.245Z,0.61
2023-03-15T06:46:35.259Z,0.72
2023-03-15T06:47:35.248Z,0.61
2023-03-15T06:48:35.252Z,1.17
2023-03-15T06:49:35.265Z,1.06
2023-03-15T06:50:46.305Z,1.06
2023-03-15T06:51:35.242Z,0.89
2023-03-15T06:52:35.261Z,1.17
2023-03-15T06:53:35.271Z,1.33
2023-03-15T06:54:35.280Z,1.17
2023-03-15T06:55:35.258Z,0.89
2023-03-15T06:56:35.250Z,1.06
2023-03-15T06:57:35.261Z,1.06
2023-03-15T06:58:35.253Z,1.06
2023-03-15T06:59:35.248Z,1.17
2023-03-15T07:00:35.245Z,1.06
2023-03-15T07:01:35.336Z,1.5
2023-03-15T07:02:35.297Z,1.17
2023-03-15T07:03:35.267Z,1.33
2023-03-15T07:04:35.248Z,1.61
2023-03-15T07:05:35.250Z,1.72
2023-03-15T07:06:35.260Z,1.61
2023-03-15T07:07:35.254Z,1.5
2023-03-15T07:08:35.253Z,1.17
2023-03-15T07:09:35.257Z,1.5
2023-03-15T07:10:35.281Z,1.61
2023-03-15T07:11:35.259Z,1.33
2023-03-15T07:12:35.262Z,1.33
2023-03-15T07:13:35.261Z,0.89
2023-03-15T07:14:35.277Z,1.06
2023-03-15T07:15:35.268Z,1.17
2023-03-15T07:16:35.266Z,0.17
2023-03-15T07:17:35.275Z,0.44
2023-03-15T07:18:35.262Z,0.28
2023-03-15T07:19:37.277Z,-0.17
2023-03-15T07:20:37.551Z,-0.28
2023-03-15T07:21:35.277Z,-0.39
2023-03-15T07:22:35.262Z,-0.39
2023-03-15T07:23:35.267Z,-0.39
2023-03-15T07:24:35.264Z,-0.39
2023-03-15T07:25:45.082Z,0.28
2023-03-15T07:26:35.318Z,0.44
2023-03-15T07:27:35.270Z,0.61
2023-03-15T07:28:35.261Z,0.72
2023-03-15T07:29:35.875Z,0.89
2023-03-15T07:30:35.259Z,0.89
2023-03-15T07:31:35.281Z,0.89
2023-03-15T07:32:35.414Z,1.5
2023-03-15T07:33:35.267Z,1.33
2023-03-15T07:34:35.282Z,1.17
2023-03-15T07:35:35.307Z,1.33
2023-03-15T07:36:35.279Z,1.17
2023-03-15T07:37:35.267Z,1.06
2023-03-15T07:38:35.270Z,1.17
2023-03-15T07:39:35.255Z,1.06
2023-03-15T07:40:35.245Z,0.72
2023-03-15T07:41:35.275Z,0.28
2023-03-15T07:42:35.283Z,0.28
2023-03-15T07:43:35.256Z,0.28
2023-03-15T07:44:35.273Z,-0.28
2023-03-15T07:45:35.262Z,0
2023-03-15T07:46:35.287Z,0.17
2023-03-15T07:47:35.284Z,-0.17
2023-03-15T07:48:35.276Z,-0.67
2023-03-15T07:49:35.267Z,-0.17
2023-03-15T07:50:35.271Z,-0.39
2023-03-15T07:51:35.270Z,-0.67
2023-03-15T07:52:35.277Z,-0.39
2023-03-15T07:53:35.279Z,-0.39
2023-03-15T07:54:35.281Z,-0.39
2023-03-15T07:55:35.313Z,-0.67
2023-03-15T07:56:35.277Z,-0.39
2023-03-15T07:57:35.284Z,-0.56
2023-03-15T07:58:35.392Z,-0.67
2023-03-15T07:59:35.289Z,-0.67
2023-03-15T08:00:35.286Z,-1
2023-03-15T08:01:35.303Z,-0.83
2023-03-15T08:02:35.290Z,-0.83
2023-03-15T08:03:35.336Z,-0.83
2023-03-15T08:04:36.881Z,-0.39
2023-03-15T08:05:35.293Z,-0.39
2023-03-15T08:06:35.301Z,-0.28
2023-03-15T08:07:35.300Z,-0.17
2023-03-15T08:08:35.306Z,-0.17
2023-03-15T08:09:35.292Z,-0.28
2023-03-15T08:10:35.306Z,-0.17
2023-03-15T08:12:35.318Z,0
2023-03-15T08:13:35.304Z,-0.17
2023-03-15T08:14:35.352Z,0
2023-03-15T08:15:35.322Z,-0.17
2023-03-15T08:16:35.385Z,-0.28
2023-03-15T08:17:35.304Z,0
2023-03-15T08:18:35.307Z,0
2023-03-15T08:19:35.315Z,0.17
2023-03-15T08:20:35.313Z,-0.17
2023-03-15T08:21:35.315Z,-0.28
2023-03-15T08:22:36.995Z,-0.28
2023-03-15T08:23:35.314Z,0
2023-03-15T08:24:35.315Z,-0.17
2023-03-15T08:25:35.317Z,-0.17
2023-03-15T08:26:35.332Z,0
2023-03-15T08:27:35.315Z,-0.17
2023-03-15T08:28:35.332Z,-0.17
2023-03-15T08:29:35.341Z,-0.17
2023-03-15T08:30:35.349Z,-0.17
2023-03-15T08:31:35.356Z,0.17
2023-03-15T08:32:35.350Z,-0.17
2023-03-15T08:33:35.340Z,-0.17
2023-03-15T08:34:35.335Z,0
2023-03-15T08:35:35.357Z,0.28
2023-03-15T08:36:35.423Z,0
2023-03-15T08:37:35.345Z,0
2023-03-15T08:38:35.323Z,-0.17
2023-03-15T08:39:35.328Z,0.17
2023-03-15T08:40:35.341Z,0
2023-03-15T08:41:35.340Z,0
2023-03-15T08:42:35.335Z,0.17
2023-03-15T08:43:35.345Z,0.17
2023-03-15T08:44:36.339Z,0.28
2023-03-15T08:45:46.868Z,0.28
2023-03-15T08:46:35.421Z,0.28
2023-03-15T08:47:35.442Z,0.28
2023-03-15T08:48:35.347Z,0.44
2023-03-15T08:49:35.357Z,0.44
2023-03-15T08:50:35.346Z,0.28
2023-03-15T08:51:35.336Z,0.61
2023-03-15T08:52:35.354Z,0.44
2023-03-15T08:53:35.352Z,0.61
2023-03-15T08:54:35.353Z,0.28
2023-03-15T08:55:35.350Z,0.61
2023-03-15T08:56:35.343Z,0.44
2023-03-15T08:57:35.360Z,0.61
2023-03-15T08:58:35.357Z,0.28
2023-03-15T08:59:35.347Z,0.61
2023-03-15T09:00:35.354Z,0.44
2023-03-15T09:01:35.357Z,0.44
2023-03-15T09:02:35.502Z,0.44
2023-03-15T09:03:35.344Z,0.61
2023-03-15T09:04:35.406Z,0.44
2023-03-15T09:05:35.352Z,-0.17
2023-03-15T09:06:35.346Z,0.44
2023-03-15T09:07:35.372Z,0.72
2023-03-15T09:08:35.355Z,0.61
2023-03-15T09:09:35.368Z,0.61
2023-03-15T09:10:35.358Z,0.72
2023-03-15T09:11:35.355Z,0.72
2023-03-15T09:12:35.368Z,0.89
2023-03-15T09:13:35.368Z,0.72
2023-03-15T09:14:35.413Z,0.72
2023-03-15T09:15:35.362Z,0.72
2023-03-15T09:16:35.466Z,0.89
2023-03-15T09:17:35.366Z,0.44
2023-03-15T09:18:35.391Z,0.44
2023-03-15T09:19:35.390Z,0.44
2023-03-15T09:20:35.384Z,0.44
2023-03-15T09:21:35.374Z,0.44
2023-03-15T09:22:39.222Z,0.61
2023-03-15T09:23:35.370Z,0.61
2023-03-15T09:24:35.371Z,0.61
2023-03-15T09:25:35.372Z,0.89
2023-03-15T09:26:35.400Z,0.89
2023-03-15T09:27:35.488Z,0.28
2023-03-15T09:28:35.376Z,0.89
2023-03-15T09:29:35.387Z,0.89
2023-03-15T09:30:35.432Z,0.61
2023-03-15T09:31:35.396Z,0.89
2023-03-15T09:32:35.532Z,0.89
2023-03-15T09:33:35.383Z,0.89
2023-03-15T09:34:41.604Z,1.5
2023-03-15T09:35:35.438Z,1.33
2023-03-15T09:36:35.390Z,0.89
2023-03-15T09:37:35.509Z,1.33
2023-03-15T09:38:35.393Z,1.17
2023-03-15T09:39:35.406Z,1.17
2023-03-15T09:40:35.393Z,1.17
2023-03-15T09:41:35.400Z,1.61
2023-03-15T09:42:35.526Z,1.06
2023-03-15T09:43:35.391Z,1.17
2023-03-15T09:44:35.393Z,1.33
2023-03-15T09:45:35.398Z,1.5
2023-03-15T09:46:35.441Z,1.33
2023-03-15T09:47:35.484Z,1.17
2023-03-15T09:48:35.406Z,1.17
2023-03-15T09:49:35.408Z,1.61
2023-03-15T09:50:35.432Z,1.72
2023-03-15T09:51:35.470Z,1.61
2023-03-15T09:52:35.403Z,1.5
2023-03-15T09:53:35.423Z,1.17
2023-03-15T09:54:35.419Z,1.33
2023-03-15T09:55:35.428Z,1.33
2023-03-15T09:56:35.420Z,1.17
2023-03-15T09:57:35.517Z,1.72
2023-03-15T09:58:35.466Z,1.72
2023-03-15T09:59:35.502Z,1.17
2023-03-15T10:00:35.429Z,1.61
2023-03-15T10:01:35.480Z,1.89
2023-03-15T10:02:35.419Z,1.72
2023-03-15T10:03:35.447Z,1.72
2023-03-15T10:04:35.432Z,1.06
2023-03-15T10:05:35.433Z,1.33
2023-03-15T10:06:37.697Z,1.17
2023-03-15T10:07:35.439Z,1.33
2023-03-15T10:08:35.463Z,1.17
2023-03-15T10:09:35.455Z,1.33
2023-03-15T10:10:35.440Z,1.5
2023-03-15T10:11:35.453Z,1.72
2023-03-15T10:12:35.458Z,1.72
2023-03-15T10:13:35.460Z,1.72
2023-03-15T10:14:35.450Z,1.72
2023-03-15T10:15:35.459Z,1.72
2023-03-15T10:16:35.458Z,2
2023-03-15T10:17:35.460Z,1.89
2023-03-15T10:18:35.462Z,1.89
2023-03-15T10:19:35.447Z,2
2023-03-15T10:20:35.451Z,2
2023-03-15T10:21:35.453Z,2.61
2023-03-15T10:22:35.478Z,1.89
2023-03-15T10:23:35.453Z,2
2023-03-15T10:24:35.470Z,2.28
2023-03-15T10:25:35.475Z,2.28
2023-03-15T10:26:35.470Z,2.61
2023-03-15T10:27:35.455Z,2.61
2023-03-15T10:28:37.013Z,2.61
2023-03-15T10:29:35.474Z,2
2023-03-15T10:30:35.465Z,2.17
2023-03-15T10:31:43.952Z,2.28
2023-03-15T10:32:35.512Z,2.17
2023-03-15T10:33:35.473Z,2.61
2023-03-15T10:34:35.470Z,2.61
2023-03-15T10:35:35.488Z,1.89
2023-03-15T10:36:35.567Z,2
2023-03-15T10:37:35.793Z,2.44
2023-03-15T10:38:35.497Z,2.72
2023-03-15T10:39:35.466Z,2.89
2023-03-15T10:40:35.483Z,2.72
2023-03-15T10:41:35.476Z,2.61
2023-03-15T10:42:35.472Z,2.89
2023-03-15T10:43:35.548Z,2.61
2023-03-15T10:44:35.500Z,2.44
2023-03-15T10:45:35.492Z,2.17
2023-03-15T10:46:35.629Z,2.61
2023-03-15T10:47:35.498Z,2.61
2023-03-15T10:48:35.491Z,2.72
2023-03-15T10:49:35.502Z,2.44
2023-03-15T10:50:35.495Z,2.17
2023-03-15T10:51:35.492Z,2.17
2023-03-15T10:52:35.689Z,2.44
2023-03-15T10:53:35.492Z,2.44
2023-03-15T10:54:35.529Z,2.17
2023-03-15T10:55:35.495Z,2.17
2023-03-15T10:56:35.501Z,2.28
2023-03-15T10:57:35.486Z,2.17
2023-03-15T10:58:35.499Z,2.28
2023-03-15T10:59:35.550Z,2.17
2023-03-15T11:00:35.494Z,1.89
2023-03-15T11:01:35.529Z,2
2023-03-15T11:02:35.512Z,2.17
2023-03-15T11:03:35.513Z,2.17
2023-03-15T11:04:35.499Z,2.17
2023-03-15T11:06:35.489Z,2.44
2023-03-15T11:06:40.992Z,2
2023-03-15T11:07:35.500Z,2.72
2023-03-15T11:08:35.488Z,2.61
2023-03-15T11:09:35.481Z,2.44
2023-03-15T11:10:35.536Z,2.61
2023-03-15T11:11:35.503Z,2.44
2023-03-15T11:12:35.502Z,2.44
2023-03-15T11:13:35.503Z,2.61
2023-03-15T11:14:35.502Z,2.44
2023-03-15T11:15:35.506Z,2.61
2023-03-15T11:16:35.599Z,2.61
2023-03-15T11:17:35.505Z,2.17
2023-03-15T11:18:35.501Z,2.61
2023-03-15T11:19:35.507Z,2.61
2023-03-15T11:20:35.506Z,2.61
2023-03-15T11:21:35.512Z,2.72
2023-03-15T11:22:35.512Z,3
2023-03-15T11:23:35.511Z,2.89
2023-03-15T11:24:35.545Z,2.61
2023-03-15T11:25:35.517Z,3.17
2023-03-15T11:26:35.544Z,3
2023-03-15T11:27:35.512Z,2.89
2023-03-15T11:28:35.554Z,2.61
2023-03-15T11:29:35.512Z,2.72
2023-03-15T11:30:35.506Z,2.44
2023-03-15T11:31:35.564Z,2.44
2023-03-15T11:32:35.546Z,2.89
2023-03-15T11:33:35.516Z,2.89
2023-03-15T11:34:35.510Z,3
2023-03-15T11:35:35.611Z,3.17
2023-03-15T11:36:35.517Z,3
2023-03-15T11:37:35.511Z,3.56
2023-03-15T11:38:35.521Z,3.56
2023-03-15T11:39:35.511Z,3.83
2023-03-15T11:40:35.529Z,3.83
2023-03-15T11:41:35.539Z,4
2023-03-15T11:42:35.558Z,3.83
2023-03-15T11:43:35.550Z,3.72
2023-03-15T11:44:35.982Z,3.56
2023-03-15T11:45:35.573Z,3.56
2023-03-15T11:46:35.537Z,3.83
2023-03-15T11:47:35.547Z,4.28
2023-03-15T11:48:35.541Z,4.28
2023-03-15T11:49:35.542Z,4.17
2023-03-15T11:50:35.551Z,4.17
2023-03-15T11:51:35.549Z,3.17
2023-03-15T11:52:35.537Z,3.44
2023-03-15T11:53:35.540Z,3.83
2023-03-15T11:54:35.534Z,3.56
2023-03-15T11:55:35.550Z,3.83
2023-03-15T11:56:35.538Z,3.72
2023-03-15T11:57:35.533Z,3.83
2023-03-15T11:58:35.575Z,3.44
2023-03-15T11:59:35.596Z,3.44
2023-03-15T12:00:35.538Z,4.28
2023-03-15T12:01:35.547Z,4
2023-03-15T12:02:35.581Z,4.28
2023-03-15T12:03:35.605Z,4.39
2023-03-15T12:04:35.560Z,4.28
2023-03-15T12:05:35.543Z,4.72
2023-03-15T12:06:35.553Z,5
2023-03-15T12:07:35.551Z,5.17
2023-03-15T12:08:35.542Z,4.56
2023-03-15T12:09:35.545Z,4.72
2023-03-15T12:10:35.548Z,4.72
2023-03-15T12:11:35.553Z,4
2023-03-15T12:12:35.551Z,4.89
2023-03-15T12:13:35.553Z,5
2023-03-15T12:14:35.579Z,5.22
2023-03-15T12:15:35.563Z,5.33
2023-03-15T12:16:35.611Z,4.39
2023-03-15T12:17:37.433Z,4.67
2023-03-15T12:18:35.544Z,4.94
2023-03-15T12:19:35.548Z,4.5
2023-03-15T12:20:35.557Z,4.94
2023-03-15T12:21:35.584Z,4.67
2023-03-15T12:22:35.581Z,4.67
2023-03-15T12:23:35.569Z,4.22
2023-03-15T12:24:35.556Z,4.11
2023-03-15T12:25:42.287Z,4.11
2023-03-15T12:26:35.548Z,3.78
2023-03-15T12:27:35.586Z,3.78
2023-03-15T12:28:35.564Z,3.78
2023-03-15T12:29:35.569Z,4.11
2023-03-15T12:30:35.650Z,3.67
2023-03-15T12:31:35.551Z,4.22
2023-03-15T12:32:35.577Z,4.22
2023-03-15T12:33:35.558Z,3.67
2023-03-15T12:34:35.573Z,3.67
2023-03-15T12:35:35.599Z,3.67
2023-03-15T12:36:35.568Z,3.39
2023-03-15T12:37:35.590Z,3.67
2023-03-15T12:38:35.566Z,4.22
2023-03-15T12:39:35.551Z,4.5
2023-03-15T12:40:35.554Z,4.11
2023-03-15T12:41:35.567Z,3.94
2023-03-15T12:42:35.554Z,3.56
2023-03-15T12:43:35.556Z,3.28
2023-03-15T12:44:35.560Z,3.28
2023-03-15T12:45:37.350Z,3.11
2023-03-15T12:46:35.634Z,3.56
2023-03-15T12:47:35.561Z,3.78
2023-03-15T12:48:35.584Z,4.11
2023-03-15T12:49:35.557Z,4.11
2023-03-15T12:50:35.565Z,3.94
2023-03-15T12:51:35.559Z,4.39
2023-03-15T12:52:35.554Z,4.83
2023-03-15T12:53:35.550Z,4.5
2023-03-15T12:54:35.562Z,4.5
2023-03-15T12:55:35.585Z,5.22
2023-03-15T12:56:35.565Z,5.67
2023-03-15T12:57:35.595Z,4.22
2023-03-15T12:58:35.553Z,4.39
2023-03-15T12:59:35.562Z,4.22
2023-03-15T13:00:35.568Z,4.94
2023-03-15T13:01:35.667Z,4.67
2023-03-15T13:02:43.097Z,4.5
2023-03-15T13:03:35.703Z,4.94
2023-03-15T13:04:35.553Z,4.94
2023-03-15T13:05:35.571Z,4.83
2023-03-15T13:06:35.567Z,5.11
2023-03-15T13:07:45.674Z,4.94
2023-03-15T13:08:35.562Z,4.5
2023-03-15T13:09:35.570Z,4.5
2023-03-15T13:10:35.555Z,5.22
2023-03-15T13:11:35.565Z,4.5
2023-03-15T13:12:35.587Z,5.39
2023-03-15T13:13:35.566Z,4.5
2023-03-15T13:14:35.567Z,4.39
2023-03-15T13:15:35.631Z,4.11
2023-03-15T13:16:35.575Z,4.5
2023-03-15T13:17:35.587Z,5.11
2023-03-15T13:18:35.585Z,5.78
2023-03-15T13:19:35.566Z,5.39
2023-03-15T13:20:35.564Z,4.94
2023-03-15T13:21:35.577Z,4.94
2023-03-15T13:22:37.398Z,4.94
2023-03-15T13:23:35.575Z,4.83
2023-03-15T13:24:35.581Z,5.22